Time;durP1;ratioP1;P1;durP2;ratioP2;P2;SDS_P1;SDS_P2;PMS_P1;PMS_P2;Temp;Humidity;BMP_temperature;BMP_pressure;BME280_temperature;BME280_humidity;BME280_pressure;Samples;Min_cycle;Max_cycle;Signal;HPM_P1;HPM_P2
2021/08/05 00:02:01;;;;;;;5.93;3.70;;;;;;;;;;5095617;28;20027;-45
2021/08/05 00:04:27;;;;;;;3.63;3.33;;;;;;;;;;5095674;28;20429;-46
2021/08/05 00:06:53;;;;;;;3.80;3.50;;;;;;;;;;5095503;28;20024;-46
2021/08/05 00:09:19;;;;;;;3.40;3.13;;;;;;;;;;5077353;28;20368;-46
2021/08/05 00:11:45;;;;;;;4.07;3.65;;;;;;;;;;5077546;28;20059;-45
2021/08/05 00:14:11;;;;;;;3.58;3.28;;;;;;;;;;5095441;28;20024;-45
2021/08/05 00:16:37;;;;;;;4.00;3.55;;;;;;;;;;5095188;28;20044;-45
2021/08/05 00:19:03;;;;;;;4.28;3.55;;;;;;;;;;5095317;28;20027;-46
2021/08/05 00:21:29;;;;;;;4.00;3.70;;;;;;;;;;5095176;28;20020;-45
2021/08/05 00:23:55;;;;;;;3.55;3.25;;;;;;;;;;5076893;28;20020;-47
2021/08/05 00:26:21;;;;;;;3.22;2.97;;;;;;;;;;5095188;28;20036;-45
2021/08/05 00:28:47;;;;;;;4.20;3.15;;;;;;;;;;5095244;28;20028;-47
2021/08/05 00:31:14;;;;;;;3.30;3.10;;;;;;;;;;5095315;28;20085;-47
2021/08/05 00:33:40;;;;;;;3.20;3.00;;;;;;;;;;5095192;28;20055;-47
2021/08/05 00:36:06;;;;;;;3.13;2.90;;;;;;;;;;5095059;28;20099;-47
2021/08/05 00:38:33;;;;;;;2.97;2.78;;;;;;;;;;5076566;28;20111;-46
2021/08/05 00:40:59;;;;;;;3.17;2.97;;;;;;;;;;5094868;28;20479;-46
2021/08/05 00:43:25;;;;;;;3.17;2.90;;;;;;;;;;5094881;28;20047;-46
2021/08/05 00:45:51;;;;;;;2.47;2.38;;;;;;;;;;5094716;28;20036;-45
2021/08/05 00:48:17;;;;;;;2.80;2.60;;;;;;;;;;5094698;28;20024;-46
2021/08/05 00:50:43;;;;;;;4.10;2.85;;;;;;;;;;5094624;28;20035;-46
2021/08/05 00:53:09;;;;;;;3.08;2.78;;;;;;;;;;5094667;28;20020;-46
2021/08/05 00:55:36;;;;;;;3.08;2.85;;;;;;;;;;5094629;28;20039;-46
2021/08/05 00:58:02;;;;;;;7.82;2.97;;;;;;;;;;5093398;28;20032;-46
2021/08/05 01:00:29;;;;;;;2.60;2.40;;;;;;;;;;5094445;28;20059;-47
2021/08/05 01:03:05;;;;;;;3.03;2.63;;;;;;;;;;5094500;28;20020;-44
2021/08/05 01:05:36;;;;;;;3.10;2.90;;;;;;;;;;5094669;28;20692;-45
2021/08/05 01:08:08;;;;;;;3.42;3.13;;;;;;;;;;5094578;28;20019;-46
2021/08/05 01:10:40;;;;;;;2.78;2.58;;;;;;;;;;5094388;28;20494;-49
2021/08/05 01:13:19;;;;;;;3.63;3.33;;;;;;;;;;5094274;28;20031;-46
2021/08/05 01:15:46;;;;;;;4.00;3.22;;;;;;;;;;5094087;28;20028;-46
2021/08/05 01:18:14;;;;;;;3.75;3.40;;;;;;;;;;5094016;28;20044;-46
2021/08/05 01:20:43;;;;;;;4.00;3.70;;;;;;;;;;5094113;28;20051;-45
2021/08/05 01:23:21;;;;;;;4.45;3.17;;;;;;;;;;5094085;28;20394;-46
2021/08/05 01:25:47;;;;;;;4.80;3.55;;;;;;;;;;5093964;28;20016;-46
2021/08/05 01:28:13;;;;;;;3.72;3.42;;;;;;;;;;5093950;28;20410;-47
2021/08/05 01:30:43;;;;;;;5.03;4.25;;;;;;;;;;5094041;28;20032;-46
2021/08/05 01:33:10;;;;;;;6.57;4.20;;;;;;;;;;5094038;28;20049;-47
2021/08/05 01:35:36;;;;;;;6.65;4.30;;;;;;;;;;5093864;28;20483;-54
2021/08/05 01:38:02;;;;;;;4.78;3.70;;;;;;;;;;5093691;28;20024;-46
2021/08/05 01:40:31;;;;;;;3.83;3.53;;;;;;;;;;5093854;28;20577;-46
2021/08/05 01:42:58;;;;;;;4.22;3.83;;;;;;;;;;5093806;28;20016;-46
2021/08/05 01:45:24;;;;;;;3.90;3.50;;;;;;;;;;5093778;28;20043;-45
2021/08/05 01:47:51;;;;;;;6.05;3.28;;;;;;;;;;5093705;28;20024;-47
2021/08/05 01:50:17;;;;;;;3.22;2.88;;;;;;;;;;5093527;28;20101;-46
2021/08/05 01:52:43;;;;;;;4.07;3.78;;;;;;;;;;5093493;28;20021;-46
2021/08/05 01:55:10;;;;;;;4.22;3.58;;;;;;;;;;5093597;28;20021;-46
2021/08/05 01:57:37;;;;;;;4.38;3.97;;;;;;;;;;5093240;28;20020;-46
2021/08/05 02:00:05;;;;;;;3.63;3.33;;;;;;;;;;5075149;28;20023;-49
2021/08/05 02:02:31;;;;;;;6.65;3.75;;;;;;;;;;5093329;28;20020;-49
2021/08/05 02:05:06;;;;;;;5.35;3.50;;;;;;;;;;5093293;28;20132;-46
2021/08/05 02:07:36;;;;;;;3.90;3.47;;;;;;;;;;5093194;28;20028;-45
2021/08/05 02:10:09;;;;;;;3.85;3.50;;;;;;;;;;5092930;28;20032;-46
2021/08/05 02:12:44;;;;;;;4.18;3.75;;;;;;;;;;5093008;28;20028;-45
2021/08/05 02:15:10;;;;;;;4.70;4.15;;;;;;;;;;5093220;28;20055;-46
2021/08/05 02:17:37;;;;;;;22.50;4.90;;;;;;;;;;5092838;28;20130;-49
2021/08/05 02:20:05;;;;;;;6.22;3.63;;;;;;;;;;5093011;28;20386;-47
2021/08/05 02:22:32;;;;;;;6.55;3.50;;;;;;;;;;5093173;28;20024;-46
2021/08/05 02:24:58;;;;;;;4.32;3.53;;;;;;;;;;5093407;28;20661;-46
2021/08/05 02:27:25;;;;;;;4.72;4.32;;;;;;;;;;5092880;28;20424;-44
2021/08/05 02:29:51;;;;;;;3.55;3.25;;;;;;;;;;5092896;28;20020;-44
2021/08/05 02:32:18;;;;;;;7.25;3.38;;;;;;;;;;5092753;28;20455;-45
2021/08/05 02:34:45;;;;;;;5.50;4.03;;;;;;;;;;5092681;28;20038;-45
2021/08/05 02:37:11;;;;;;;6.18;4.05;;;;;;;;;;5092596;28;20502;-46
2021/08/05 02:39:37;;;;;;;7.38;3.50;;;;;;;;;;5092615;28;20455;-46
2021/08/05 02:42:03;;;;;;;3.97;3.50;;;;;;;;;;5092536;28;20441;-48
2021/08/05 02:44:30;;;;;;;4.15;3.15;;;;;;;;;;5092593;28;20020;-47
2021/08/05 02:46:57;;;;;;;3.67;3.38;;;;;;;;;;5074557;28;20139;-46
2021/08/05 02:49:23;;;;;;;4.00;3.60;;;;;;;;;;5092451;28;20031;-50
2021/08/05 02:51:49;;;;;;;4.20;3.13;;;;;;;;;;5092347;28;20028;-46
2021/08/05 02:54:16;;;;;;;5.00;3.85;;;;;;;;;;5092299;28;20027;-49
2021/08/05 02:56:42;;;;;;;5.22;3.47;;;;;;;;;;5092301;28;20047;-49
2021/08/05 02:59:08;;;;;;;3.30;3.05;;;;;;;;;;5074000;28;20056;-47
2021/08/05 03:01:35;;;;;;;4.47;4.05;;;;;;;;;;5092197;28;20435;-47
2021/08/05 03:04:01;;;;;;;4.40;4.00;;;;;;;;;;5092179;28;20020;-48
2021/08/05 03:06:27;;;;;;;4.07;3.65;;;;;;;;;;5092181;28;20093;-46
2021/08/05 03:08:54;;;;;;;6.65;4.20;;;;;;;;;;5092127;28;20024;-46
2021/08/05 03:11:20;;;;;;;5.28;4.43;;;;;;;;;;5092272;28;20024;-45
2021/08/05 03:13:46;;;;;;;7.82;4.97;;;;;;;;;;5092117;28;20437;-45
2021/08/05 03:16:15;;;;;;;9.43;5.45;;;;;;;;;;5091903;28;20516;-45
2021/08/05 03:18:41;;;;;;;9.88;7.72;;;;;;;;;;5091833;28;20479;-46
2021/08/05 03:21:07;;;;;;;13.40;8.57;;;;;;;;;;5091528;28;20028;-45
2021/08/05 03:23:33;;;;;;;12.88;9.32;;;;;;;;;;5091773;28;20451;-47
2021/08/05 03:25:59;;;;;;;16.08;10.48;;;;;;;;;;5091911;28;20024;-45
2021/08/05 03:28:25;;;;;;;13.13;10.20;;;;;;;;;;5091885;28;20024;-46
2021/08/05 03:30:51;;;;;;;15.80;11.10;;;;;;;;;;5091834;28;20032;-46
2021/08/05 03:33:17;;;;;;;14.07;10.30;;;;;;;;;;5091732;28;20055;-49
2021/08/05 03:35:43;;;;;;;14.48;9.80;;;;;;;;;;5091753;28;20164;-47
2021/08/05 03:38:09;;;;;;;13.38;9.70;;;;;;;;;;5091662;28;20063;-47
2021/08/05 03:40:35;;;;;;;13.15;9.43;;;;;;;;;;5073595;28;20441;-47
2021/08/05 03:43:01;;;;;;;12.50;8.73;;;;;;;;;;5091974;28;20028;-46
2021/08/05 03:45:27;;;;;;;12.25;8.68;;;;;;;;;;5091740;28;20024;-49
2021/08/05 03:47:53;;;;;;;11.23;8.50;;;;;;;;;;5091623;28;20027;-49
2021/08/05 03:50:19;;;;;;;11.50;8.25;;;;;;;;;;5091750;28;20104;-49
2021/08/05 03:52:45;;;;;;;10.00;8.43;;;;;;;;;;5091754;28;20040;-49
2021/08/05 03:55:15;;;;;;;8.00;6.85;;;;;;;;;;5091747;28;20071;-49
2021/08/05 03:57:41;;;;;;;7.25;6.10;;;;;;;;;;5091517;28;20048;-50
2021/08/05 04:00:11;;;;;;;6.47;5.60;;;;;;;;;;5091437;28;20111;-49
2021/08/05 04:02:37;;;;;;;7.03;5.38;;;;;;;;;;5091717;28;20514;-46
2021/08/05 04:05:03;;;;;;;5.90;5.20;;;;;;;;;;5091523;28;20028;-46
2021/08/05 04:07:29;;;;;;;7.53;5.78;;;;;;;;;;5091501;28;20464;-46
2021/08/05 04:09:55;;;;;;;6.18;5.53;;;;;;;;;;5090785;28;20028;-49
2021/08/05 04:12:21;;;;;;;5.68;5.18;;;;;;;;;;5091268;28;20024;-47
2021/08/05 04:14:47;;;;;;;5.68;5.18;;;;;;;;;;5090570;28;20028;-51
2021/08/05 04:17:13;;;;;;;6.55;5.30;;;;;;;;;;5090957;28;20048;-47
2021/08/05 04:19:39;;;;;;;6.50;5.22;;;;;;;;;;5090983;28;20054;-47
2021/08/05 04:22:05;;;;;;;9.18;5.55;;;;;;;;;;5091208;28;20412;-46
2021/08/05 04:24:31;;;;;;;5.55;4.88;;;;;;;;;;5090799;28;20024;-47
2021/08/05 04:26:57;;;;;;;6.20;5.28;;;;;;;;;;5091156;28;20413;-47
2021/08/05 04:29:23;;;;;;;8.18;6.15;;;;;;;;;;5091117;28;20028;-49
2021/08/05 04:31:49;;;;;;;8.98;5.72;;;;;;;;;;5092166;28;20081;-46
2021/08/05 04:34:16;;;;;;;5.68;5.07;;;;;;;;;;5094925;28;20082;-46
2021/08/05 04:36:42;;;;;;;8.55;5.57;;;;;;;;;;5094887;28;20117;-48
2021/08/05 04:39:08;;;;;;;6.22;5.53;;;;;;;;;;5094928;28;20020;-46
2021/08/05 04:41:34;;;;;;;5.93;5.35;;;;;;;;;;5095025;28;20463;-45
2021/08/05 04:44:00;;;;;;;8.88;5.40;;;;;;;;;;5094786;28;20066;-45
2021/08/05 04:46:26;;;;;;;6.05;5.45;;;;;;;;;;5076743;28;20024;-48
2021/08/05 04:48:52;;;;;;;6.30;5.70;;;;;;;;;;5094770;28;20035;-47
2021/08/05 04:51:19;;;;;;;6.78;5.60;;;;;;;;;;5094741;28;20065;-46
2021/08/05 04:53:46;;;;;;;6.70;5.18;;;;;;;;;;5094707;28;20028;-48
2021/08/05 04:56:12;;;;;;;6.35;5.10;;;;;;;;;;5094757;28;20031;-47
2021/08/05 04:58:38;;;;;;;7.05;5.95;;;;;;;;;;5094554;28;20028;-47
2021/08/05 05:01:04;;;;;;;7.85;6.07;;;;;;;;;;5094594;28;20024;-47
2021/08/05 05:03:30;;;;;;;7.47;6.78;;;;;;;;;;5092520;28;20020;-45
2021/08/05 05:05:57;;;;;;;7.35;5.60;;;;;;;;;;5094270;28;20026;-47
2021/08/05 05:08:24;;;;;;;6.40;5.53;;;;;;;;;;5092668;28;20119;-48
2021/08/05 05:10:51;;;;;;;7.20;5.63;;;;;;;;;;5076162;28;20020;-50
2021/08/05 05:13:17;;;;;;;6.68;6.05;;;;;;;;;;5094294;28;20024;-46
2021/08/05 05:15:44;;;;;;;7.32;6.07;;;;;;;;;;5094274;28;20119;-47
2021/08/05 05:18:10;;;;;;;7.80;6.50;;;;;;;;;;5093190;28;20139;-46
2021/08/05 05:20:37;;;;;;;8.05;6.47;;;;;;;;;;5093978;28;20017;-46
2021/08/05 05:23:03;;;;;;;8.15;6.00;;;;;;;;;;5094152;28;20018;-48
2021/08/05 05:25:29;;;;;;;7.07;6.35;;;;;;;;;;5094038;28;20016;-46
2021/08/05 05:27:56;;;;;;;9.55;7.55;;;;;;;;;;5093991;28;20424;-45
2021/08/05 05:30:22;;;;;;;7.43;6.57;;;;;;;;;;5094219;28;20031;-46
2021/08/05 05:32:48;;;;;;;6.70;6.10;;;;;;;;;;5091835;28;20012;-49
2021/08/05 05:35:15;;;;;;;6.82;6.18;;;;;;;;;;5083265;28;20028;-46
2021/08/05 05:37:42;;;;;;;9.10;6.22;;;;;;;;;;5078648;28;20022;-48
2021/08/05 05:40:08;;;;;;;10.05;6.60;;;;;;;;;;5081872;28;20118;-46
2021/08/05 05:42:34;;;;;;;7.00;6.22;;;;;;;;;;5084049;28;20030;-46
2021/08/05 05:45:01;;;;;;;8.35;6.75;;;;;;;;;;5093473;28;20025;-49
2021/08/05 05:47:27;;;;;;;13.55;7.88;;;;;;;;;;5093583;28;20051;-48
2021/08/05 05:49:54;;;;;;;6.90;6.07;;;;;;;;;;5092722;28;20136;-46
2021/08/05 05:52:20;;;;;;;8.40;6.40;;;;;;;;;;5085890;28;20625;-48
2021/08/05 05:54:46;;;;;;;7.63;6.72;;;;;;;;;;5089755;28;20032;-47
2021/08/05 05:57:12;;;;;;;11.85;7.18;;;;;;;;;;5075171;28;20395;-47
2021/08/05 05:59:40;;;;;;;17.65;7.55;;;;;;;;;;5092336;28;20028;-48
2021/08/05 06:02:06;;;;;;;7.53;6.32;;;;;;;;;;5093194;28;20027;-49
2021/08/05 06:04:32;;;;;;;9.25;6.53;;;;;;;;;;5093398;28;20454;-47
2021/08/05 06:06:58;;;;;;;9.60;6.80;;;;;;;;;;5093250;28;20368;-49
2021/08/05 06:09:24;;;;;;;12.35;6.72;;;;;;;;;;5093114;28;20077;-49
2021/08/05 06:11:50;;;;;;;9.43;6.95;;;;;;;;;;5093156;28;20077;-46
2021/08/05 06:14:17;;;;;;;6.70;6.03;;;;;;;;;;5093023;28;20028;-46
2021/08/05 06:16:43;;;;;;;14.48;7.55;;;;;;;;;;5092674;28;20044;-48
2021/08/05 06:19:09;;;;;;;9.15;7.03;;;;;;;;;;5092739;28;20085;-48
2021/08/05 06:21:35;;;;;;;9.77;7.22;;;;;;;;;;5092915;28;20024;-49
2021/08/05 06:24:01;;;;;;;8.88;6.40;;;;;;;;;;5093484;28;20038;-46
2021/08/05 06:26:27;;;;;;;11.00;6.72;;;;;;;;;;5092854;28;20016;-46
2021/08/05 06:28:54;;;;;;;10.73;7.45;;;;;;;;;;5092649;28;20028;-46
2021/08/05 06:31:20;;;;;;;7.80;6.90;;;;;;;;;;5069720;28;20077;-46
2021/08/05 06:33:54;;;;;;;6.53;5.93;;;;;;;;;;5089886;28;20035;-46
2021/08/05 06:36:20;;;;;;;11.00;7.10;;;;;;;;;;5073245;28;20092;-47
2021/08/05 06:38:46;;;;;;;13.32;7.65;;;;;;;;;;5091735;28;20058;-46
2021/08/05 06:41:12;;;;;;;10.00;7.25;;;;;;;;;;5091001;28;20015;-46
2021/08/05 06:43:38;;;;;;;10.07;8.02;;;;;;;;;;5091028;28;20055;-48
2021/08/05 06:46:04;;;;;;;9.48;8.30;;;;;;;;;;5091051;28;20090;-50
2021/08/05 06:48:31;;;;;;;9.63;6.97;;;;;;;;;;5091320;28;20710;-46
2021/08/05 06:50:57;;;;;;;8.23;7.43;;;;;;;;;;5091512;28;20024;-50
2021/08/05 06:53:23;;;;;;;10.02;7.88;;;;;;;;;;5089868;28;20391;-46
2021/08/05 06:55:49;;;;;;;9.25;7.10;;;;;;;;;;5088998;28;20027;-47
2021/08/05 06:58:19;;;;;;;8.40;7.28;;;;;;;;;;5089868;28;20100;-50
2021/08/05 07:00:45;;;;;;;8.15;7.20;;;;;;;;;;5089972;28;20020;-49
2021/08/05 07:03:11;;;;;;;9.35;7.15;;;;;;;;;;5089892;28;20062;-45
2021/08/05 07:05:37;;;;;;;8.60;7.70;;;;;;;;;;5089878;28;20009;-46
2021/08/05 07:08:03;;;;;;;11.82;8.15;;;;;;;;;;5090929;28;20386;-47
2021/08/05 07:10:30;;;;;;;7.75;6.95;;;;;;;;;;5092047;28;20020;-46
2021/08/05 07:12:56;;;;;;;10.10;7.32;;;;;;;;;;5091936;28;20027;-49
2021/08/05 07:15:22;;;;;;;7.45;6.75;;;;;;;;;;5091650;28;20035;-49
2021/08/05 07:17:48;;;;;;;9.50;6.88;;;;;;;;;;5091661;28;20055;-46
2021/08/05 07:20:15;;;;;;;7.93;6.70;;;;;;;;;;5091558;28;20031;-45
2021/08/05 07:22:42;;;;;;;7.72;6.35;;;;;;;;;;5091608;28;20125;-48
2021/08/05 07:25:09;;;;;;;7.85;7.05;;;;;;;;;;5091685;28;20375;-48
2021/08/05 07:27:36;;;;;;;8.98;7.13;;;;;;;;;;5091575;28;20463;-47
2021/08/05 07:30:02;;;;;;;9.80;6.45;;;;;;;;;;5091563;28;20032;-48
2021/08/05 07:32:28;;;;;;;7.10;6.20;;;;;;;;;;5091534;28;20032;-48
2021/08/05 07:34:54;;;;;;;7.18;5.78;;;;;;;;;;5091559;28;20024;-46
2021/08/05 07:37:20;;;;;;;6.15;5.55;;;;;;;;;;5091427;28;20024;-46
2021/08/05 07:39:46;;;;;;;8.07;5.85;;;;;;;;;;5091430;28;20024;-45
2021/08/05 07:42:13;;;;;;;6.13;5.35;;;;;;;;;;5091349;28;20024;-45
2021/08/05 07:44:39;;;;;;;6.53;5.15;;;;;;;;;;5091522;28;20016;-47
2021/08/05 07:47:05;;;;;;;5.15;4.65;;;;;;;;;;5091497;28;20451;-47
2021/08/05 07:49:31;;;;;;;6.22;5.47;;;;;;;;;;5091410;28;20025;-47
2021/08/05 07:51:57;;;;;;;5.47;5.07;;;;;;;;;;5091581;28;20432;-47
2021/08/05 07:54:23;;;;;;;5.80;5.20;;;;;;;;;;5091301;28;20428;-47
2021/08/05 07:56:49;;;;;;;5.35;4.85;;;;;;;;;;5091378;28;20066;-45
2021/08/05 07:59:15;;;;;;;5.13;4.32;;;;;;;;;;5091079;28;20035;-51
2021/08/05 08:01:41;;;;;;;6.30;4.78;;;;;;;;;;5091442;28;20025;-46
2021/08/05 08:04:07;;;;;;;5.85;4.45;;;;;;;;;;5091459;28;20028;-47
2021/08/05 08:06:33;;;;;;;5.63;4.65;;;;;;;;;;5092472;28;20025;-46
2021/08/05 08:09:00;;;;;;;6.93;4.57;;;;;;;;;;5095436;28;20077;-46
2021/08/05 08:11:26;;;;;;;5.28;4.03;;;;;;;;;;5095376;28;20085;-49
2021/08/05 08:13:52;;;;;;;4.10;3.75;;;;;;;;;;5095182;28;20108;-46
2021/08/05 08:16:20;;;;;;;5.18;3.90;;;;;;;;;;5095179;28;20130;-46
2021/08/05 08:18:46;;;;;;;4.40;4.00;;;;;;;;;;5094964;28;20043;-46
2021/08/05 08:21:12;;;;;;;4.45;3.90;;;;;;;;;;5095095;28;20020;-47
2021/08/05 08:23:38;;;;;;;4.50;4.10;;;;;;;;;;5094993;28;20020;-46
2021/08/05 08:26:04;;;;;;;5.03;4.53;;;;;;;;;;5094966;28;20020;-47
2021/08/05 08:28:30;;;;;;;4.30;3.90;;;;;;;;;;5094947;28;20024;-45
2021/08/05 08:30:56;;;;;;;4.47;4.07;;;;;;;;;;5094701;28;20421;-45
2021/08/05 08:33:22;;;;;;;4.72;3.70;;;;;;;;;;5094859;28;20046;-49
2021/08/05 08:35:48;;;;;;;3.85;3.45;;;;;;;;;;5094804;28;20459;-46
2021/08/05 08:38:14;;;;;;;3.78;3.47;;;;;;;;;;5094551;28;20031;-45
2021/08/05 08:40:40;;;;;;;5.13;3.47;;;;;;;;;;5094781;28;20024;-45
2021/08/05 08:43:06;;;;;;;4.47;3.85;;;;;;;;;;5094692;28;20055;-48
2021/08/05 08:45:33;;;;;;;5.13;3.63;;;;;;;;;;5094549;28;20027;-47
2021/08/05 08:48:00;;;;;;;3.90;3.38;;;;;;;;;;5094564;28;20333;-47
2021/08/05 08:50:26;;;;;;;4.85;3.72;;;;;;;;;;5094404;28;20099;-46
2021/08/05 08:52:54;;;;;;;5.22;3.55;;;;;;;;;;5094676;28;20036;-45
2021/08/05 08:55:21;;;;;;;7.68;4.38;;;;;;;;;;5094512;28;20107;-46
2021/08/05 08:57:47;;;;;;;4.93;3.92;;;;;;;;;;5094337;28;20387;-46
2021/08/05 09:00:13;;;;;;;4.30;3.90;;;;;;;;;;5094385;28;20099;-46
2021/08/05 09:02:40;;;;;;;6.68;4.40;;;;;;;;;;5094384;28;20039;-45
2021/08/05 09:05:07;;;;;;;10.70;4.72;;;;;;;;;;5094369;28;20020;-46
2021/08/05 09:07:34;;;;;;;4.88;3.65;;;;;;;;;;5094261;28;20032;-46
2021/08/05 09:10:00;;;;;;;4.13;3.67;;;;;;;;;;5094343;28;20028;-47
2021/08/05 09:12:26;;;;;;;3.22;2.97;;;;;;;;;;5094128;28;20019;-47
2021/08/05 09:14:53;;;;;;;3.17;2.97;;;;;;;;;;5094043;28;20085;-47
2021/08/05 09:17:27;;;;;;;3.72;3.13;;;;;;;;;;5093859;28;20040;-47
2021/08/05 09:19:57;;;;;;;2.72;2.53;;;;;;;;;;5092936;28;20032;-47
2021/08/05 09:22:39;;;;;;;3.08;2.67;;;;;;;;;;5093973;28;20020;-48
2021/08/05 09:25:23;;;;;;;4.35;2.53;;;;;;;;;;5093900;28;20016;-47
2021/08/05 09:27:50;;;;;;;2.88;2.67;;;;;;;;;;5094019;28;20096;-48
2021/08/05 09:30:30;;;;;;;3.13;2.92;;;;;;;;;;5093908;28;20028;-46
2021/08/05 09:33:25;;;;;;;3.17;2.88;;;;;;;;;;5093743;28;20024;-48
2021/08/05 09:35:51;;;;;;;3.90;3.20;;;;;;;;;;5072674;28;20055;-46
2021/08/05 09:38:25;;;;;;;3.08;2.78;;;;;;;;;;5093617;28;20028;-48
2021/08/05 09:41:09;;;;;;;4.20;3.00;;;;;;;;;;5093684;28;20433;-46
2021/08/05 09:43:36;;;;;;;4.70;3.20;;;;;;;;;;5093641;28;20057;-46
2021/08/05 09:46:03;;;;;;;2.97;2.78;;;;;;;;;;5093471;28;20066;-48
2021/08/05 09:48:33;;;;;;;3.00;2.70;;;;;;;;;;5093366;28;20028;-47
2021/08/05 09:51:25;;;;;;;3.13;2.58;;;;;;;;;;5093542;28;20109;-48
2021/08/05 09:53:52;;;;;;;3.22;2.92;;;;;;;;;;5070960;28;20035;-50
2021/08/05 09:56:19;;;;;;;3.08;2.78;;;;;;;;;;5093306;28;20082;-47
2021/08/05 09:58:45;;;;;;;3.53;2.90;;;;;;;;;;5093005;28;20027;-45
2021/08/05 10:01:11;;;;;;;3.40;2.97;;;;;;;;;;5093146;28;20024;-46
2021/08/05 10:03:39;;;;;;;3.35;3.05;;;;;;;;;;5093116;28;20031;-49
2021/08/05 10:06:07;;;;;;;3.42;2.65;;;;;;;;;;5093009;28;20024;-48
2021/08/05 10:08:40;;;;;;;3.40;2.80;;;;;;;;;;5092997;28;20036;-46
2021/08/05 10:11:07;;;;;;;3.17;2.50;;;;;;;;;;5092904;28;20035;-48
2021/08/05 10:13:34;;;;;;;3.72;2.53;;;;;;;;;;5092956;28;20042;-46
2021/08/05 10:16:00;;;;;;;2.85;2.65;;;;;;;;;;5092580;28;20032;-48
2021/08/05 10:18:30;;;;;;;3.10;2.90;;;;;;;;;;5092749;28;20114;-47
2021/08/05 10:20:57;;;;;;;2.85;2.65;;;;;;;;;;5092685;28;20387;-47
2021/08/05 10:23:24;;;;;;;3.35;2.55;;;;;;;;;;5092837;28;20051;-49
2021/08/05 10:25:50;;;;;;;3.33;2.83;;;;;;;;;;5092661;28;20031;-46
2021/08/05 10:28:17;;;;;;;2.97;2.67;;;;;;;;;;5092678;28;20024;-46
2021/08/05 10:30:43;;;;;;;3.35;2.97;;;;;;;;;;5092445;28;20035;-47
2021/08/05 10:33:10;;;;;;;3.03;2.72;;;;;;;;;;5092579;28;20020;-47
2021/08/05 10:35:36;;;;;;;3.45;3.15;;;;;;;;;;5092493;28;20101;-47
2021/08/05 10:38:04;;;;;;;3.92;3.22;;;;;;;;;;5092376;28;20051;-45
2021/08/05 10:40:30;;;;;;;3.70;3.40;;;;;;;;;;5092282;28;20028;-46
2021/08/05 10:42:57;;;;;;;2.90;2.70;;;;;;;;;;5092341;28;20031;-47
2021/08/05 10:45:23;;;;;;;3.22;3.00;;;;;;;;;;5092299;28;20023;-47
2021/08/05 10:47:50;;;;;;;3.60;3.30;;;;;;;;;;5092216;28;20031;-50
2021/08/05 10:50:18;;;;;;;3.25;2.95;;;;;;;;;;5092337;28;20031;-51
2021/08/05 10:52:48;;;;;;;2.90;2.60;;;;;;;;;;5092142;28;20099;-46
2021/08/05 10:55:17;;;;;;;3.00;2.70;;;;;;;;;;5092743;28;20027;-47
2021/08/05 10:57:46;;;;;;;3.20;2.58;;;;;;;;;;5092736;28;20072;-49
2021/08/05 11:00:14;;;;;;;5.22;2.97;;;;;;;;;;5073737;28;20031;-48
2021/08/05 11:02:43;;;;;;;3.85;3.47;;;;;;;;;;5074073;28;20016;-47
2021/08/05 11:05:10;;;;;;;4.10;3.28;;;;;;;;;;5092055;28;20027;-50
2021/08/05 11:07:36;;;;;;;3.65;3.33;;;;;;;;;;5091865;28;20024;-49
2021/08/05 11:10:14;;;;;;;3.45;3.10;;;;;;;;;;5091850;28;20035;-46
2021/08/05 11:12:48;;;;;;;3.85;3.20;;;;;;;;;;5091995;28;20028;-46
2021/08/05 11:15:24;;;;;;;3.47;2.83;;;;;;;;;;5091945;28;20444;-46
2021/08/05 11:18:09;;;;;;;3.08;2.88;;;;;;;;;;5091740;28;20109;-46
2021/08/05 11:20:36;;;;;;;3.00;2.70;;;;;;;;;;5091638;28;20051;-50
2021/08/05 11:23:02;;;;;;;3.78;2.83;;;;;;;;;;5091769;28;20468;-46
2021/08/05 11:25:55;;;;;;;8.75;3.70;;;;;;;;;;5091846;28;20020;-46
2021/08/05 11:28:32;;;;;;;3.50;3.20;;;;;;;;;;5053555;28;20032;-47
2021/08/05 11:30:59;;;;;;;6.10;3.45;;;;;;;;;;5091933;28;20035;-47
2021/08/05 11:33:34;;;;;;;6.63;3.67;;;;;;;;;;5091751;28;20455;-47
2021/08/05 11:36:14;;;;;;;4.43;3.40;;;;;;;;;;5091621;28;20031;-49
2021/08/05 11:38:59;;;;;;;5.40;3.97;;;;;;;;;;5091652;28;20027;-46
2021/08/05 11:41:44;;;;;;;5.25;3.75;;;;;;;;;;5090840;28;20020;-48
2021/08/05 11:44:22;;;;;;;4.32;3.92;;;;;;;;;;5091500;28;20020;-48
2021/08/05 11:47:07;;;;;;;7.35;4.30;;;;;;;;;;5091383;28;20110;-48
2021/08/05 11:49:37;;;;;;;4.30;3.90;;;;;;;;;;5091469;28;20028;-46
2021/08/05 11:52:11;;;;;;;5.22;4.47;;;;;;;;;;5091318;28;20028;-48
2021/08/05 11:54:37;;;;;;;;;;;;;;;;;;5091872;28;20032;-51
2021/08/05 11:57:04;;;;;;;10.93;4.68;;;;;;;;;;5091332;28;19961;-47
2021/08/05 11:59:38;;;;;;;12.05;5.75;;;;;;;;;;5091138;28;20027;-47
2021/08/05 12:02:04;;;;;;;;;;;;;;;;;;5091707;28;20463;-47
2021/08/05 12:04:30;;;;;;;6.57;3.88;;;;;;;;;;5091265;28;20371;-47
2021/08/05 12:07:15;;;;;;;3.92;3.40;;;;;;;;;;5091147;28;20028;-47
2021/08/05 12:09:41;;;;;;;5.13;3.33;;;;;;;;;;5091234;28;20028;-46
2021/08/05 12:12:07;;;;;;;5.82;3.63;;;;;;;;;;5091608;28;20378;-48
2021/08/05 12:14:34;;;;;;;5.53;3.50;;;;;;;;;;5091093;28;20028;-45
2021/08/05 12:17:00;;;;;;;4.30;3.50;;;;;;;;;;5090994;28;20056;-50
2021/08/05 12:19:29;;;;;;;6.50;3.45;;;;;;;;;;5091059;28;20036;-46
2021/08/05 12:21:55;;;;;;;3.50;3.20;;;;;;;;;;5091162;28;20032;-48
2021/08/05 12:24:24;;;;;;;4.85;3.47;;;;;;;;;;5091160;28;20024;-48
2021/08/05 12:26:59;;;;;;;3.75;3.42;;;;;;;;;;5090913;28;20024;-48
2021/08/05 12:29:25;;;;;;;4.18;3.78;;;;;;;;;;5091351;28;20032;-47
2021/08/05 12:31:51;;;;;;;3.33;3.03;;;;;;;;;;5072991;28;20028;-51
2021/08/05 12:34:19;;;;;;;3.03;2.78;;;;;;;;;;5091087;28;20387;-46
2021/08/05 12:36:45;;;;;;;3.58;3.28;;;;;;;;;;5090929;28;20066;-52
2021/08/05 12:39:11;;;;;;;6.30;3.10;;;;;;;;;;5090728;28;20020;-47
2021/08/05 12:41:40;;;;;;;3.38;2.95;;;;;;;;;;5090864;28;20024;-49
2021/08/05 12:44:15;;;;;;;4.20;3.80;;;;;;;;;;5091132;28;20012;-49
2021/08/05 12:46:44;;;;;;;3.85;3.35;;;;;;;;;;5090813;28;20029;-47
2021/08/05 12:49:11;;;;;;;5.13;3.60;;;;;;;;;;5090839;28;20028;-52
2021/08/05 12:51:38;;;;;;;3.58;3.28;;;;;;;;;;5090692;28;20043;-51
2021/08/05 12:54:13;;;;;;;4.38;3.28;;;;;;;;;;5092243;28;20421;-47
2021/08/05 12:56:46;;;;;;;6.15;3.83;;;;;;;;;;5094583;28;20508;-50
2021/08/05 12:59:12;;;;;;;8.10;3.90;;;;;;;;;;5094291;28;20024;-49
2021/08/05 13:01:39;;;;;;;8.32;4.53;;;;;;;;;;5094332;28;20020;-51
2021/08/05 13:04:05;;;;;;;10.95;4.70;;;;;;;;;;5094515;28;20421;-50
2021/08/05 13:06:52;;;;;;;6.03;4.20;;;;;;;;;;5094561;28;20584;-50
2021/08/05 13:09:18;;;;;;;6.05;4.20;;;;;;;;;;5094466;28;20486;-48
2021/08/05 13:11:45;;;;;;;4.85;3.58;;;;;;;;;;5094243;28;20027;-50
2021/08/05 13:14:25;;;;;;;3.58;3.28;;;;;;;;;;5076040;28;20020;-48
2021/08/05 13:17:04;;;;;;;3.80;3.40;;;;;;;;;;5093920;28;20047;-48
2021/08/05 13:19:30;;;;;;;4.10;3.08;;;;;;;;;;5094174;28;20038;-50
2021/08/05 13:21:57;;;;;;;4.80;3.63;;;;;;;;;;5094182;28;20078;-48
2021/08/05 13:24:28;;;;;;;2.83;2.58;;;;;;;;;;5094151;28;20066;-48
2021/08/05 13:26:55;;;;;;;3.03;2.70;;;;;;;;;;5093820;28;20413;-48
2021/08/05 13:29:34;;;;;;;3.83;2.95;;;;;;;;;;5093874;28;20467;-49
2021/08/05 13:32:00;;;;;;;5.03;2.95;;;;;;;;;;5093839;28;20027;-50
2021/08/05 13:34:27;;;;;;;3.40;3.08;;;;;;;;;;5093778;28;20032;-47
2021/08/05 13:36:53;;;;;;;3.30;3.00;;;;;;;;;;5093883;28;20058;-49
2021/08/05 13:39:39;;;;;;;5.55;3.08;;;;;;;;;;5093563;28;20073;-48
2021/08/05 13:42:06;;;;;;;4.20;2.95;;;;;;;;;;5093392;28;20051;-47
2021/08/05 13:44:32;;;;;;;5.30;2.90;;;;;;;;;;5093756;28;20028;-48
2021/08/05 13:46:58;;;;;;;3.10;2.85;;;;;;;;;;5093474;28;20498;-47
2021/08/05 13:49:24;;;;;;;3.60;3.25;;;;;;;;;;5093313;28;20058;-49
2021/08/05 13:51:50;;;;;;;3.80;3.08;;;;;;;;;;5093346;28;20031;-51
2021/08/05 13:54:16;;;;;;;2.90;2.70;;;;;;;;;;5093191;28;20027;-51
2021/08/05 13:56:42;;;;;;;3.47;3.17;;;;;;;;;;5093206;28;20020;-47
2021/08/05 13:59:08;;;;;;;3.03;2.83;;;;;;;;;;5093014;28;20024;-50
2021/08/05 14:01:34;;;;;;;3.00;2.80;;;;;;;;;;5093187;28;20020;-50
2021/08/05 14:04:00;;;;;;;5.93;3.00;;;;;;;;;;5092927;28;20024;-48
2021/08/05 14:06:26;;;;;;;3.15;2.65;;;;;;;;;;5092618;28;20023;-50
2021/08/05 14:08:52;;;;;;;2.97;2.72;;;;;;;;;;5092983;28;20538;-48
2021/08/05 14:11:18;;;;;;;3.00;2.80;;;;;;;;;;5092964;28;20115;-48
2021/08/05 14:13:44;;;;;;;3.40;3.10;;;;;;;;;;5092889;28;20036;-51
2021/08/05 14:16:10;;;;;;;3.55;3.25;;;;;;;;;;5092581;28;20032;-48
2021/08/05 14:18:36;;;;;;;4.05;3.63;;;;;;;;;;5074916;28;20035;-49
2021/08/05 14:21:02;;;;;;;3.70;3.40;;;;;;;;;;5092602;28;20020;-52
2021/08/05 14:23:28;;;;;;;3.20;2.95;;;;;;;;;;5092586;28;20138;-51
2021/08/05 14:25:55;;;;;;;4.13;3.08;;;;;;;;;;5092539;28;20121;-47
2021/08/05 14:28:21;;;;;;;4.15;3.28;;;;;;;;;;5092579;28;20024;-51
2021/08/05 14:30:47;;;;;;;3.42;3.13;;;;;;;;;;5092393;28;20024;-51
2021/08/05 14:33:13;;;;;;;4.20;3.38;;;;;;;;;;5092387;28;20027;-50
2021/08/05 14:35:40;;;;;;;3.42;3.13;;;;;;;;;;5092436;28;20019;-50
2021/08/05 14:38:06;;;;;;;3.50;3.20;;;;;;;;;;5092442;28;20528;-51
2021/08/05 14:40:32;;;;;;;3.67;3.38;;;;;;;;;;5092538;28;20038;-49
2021/08/05 14:42:58;;;;;;;4.22;3.40;;;;;;;;;;5092371;28;20023;-50
2021/08/05 14:45:24;;;;;;;3.47;3.03;;;;;;;;;;5092489;28;20017;-46
2021/08/05 14:47:50;;;;;;;3.63;3.17;;;;;;;;;;5092277;28;20020;-51